sensor_id;sensor_type;location;lat;lon;timestamp;P1;durP1;ratioP1;P2;durP2;ratioP2
7440;SDS011;29616;51.950;8.572;2023-08-12T00:02:19;4.78;;;3.17;;
7440;SDS011;29616;51.950;8.572;2023-08-12T00:04:48;5.57;;;3.60;;
7440;SDS011;29616;51.950;8.572;2023-08-12T00:07:20;6.35;;;3.30;;
7440;SDS011;29616;51.950;8.572;2023-08-12T00:09:49;5.03;;;3.03;;
7440;SDS011;29616;51.950;8.572;2023-08-12T00:12:19;5.22;;;3.72;;
7440;SDS011;29616;51.950;8.572;2023-08-12T00:14:50;6.68;;;3.25;;
7440;SDS011;29616;51.950;8.572;2023-08-12T00:17:19;7.93;;;3.50;;
7440;SDS011;29616;51.950;8.572;2023-08-12T00:19:47;9.93;;;3.72;;
7440;SDS011;29616;51.950;8.572;2023-08-12T00:22:16;5.80;;;3.75;;
7440;SDS011;29616;51.950;8.572;2023-08-12T00:24:45;5.30;;;3.15;;
7440;SDS011;29616;51.950;8.572;2023-08-12T00:27:13;5.03;;;3.17;;
7440;SDS011;29616;51.950;8.572;2023-08-12T00:29:42;5.20;;;3.20;;
7440;SDS011;29616;51.950;8.572;2023-08-12T00:32:14;4.95;;;3.17;;
7440;SDS011;29616;51.950;8.572;2023-08-12T00:34:43;4.93;;;3.28;;
7440;SDS011;29616;51.950;8.572;2023-08-12T00:37:12;5.95;;;3.60;;
7440;SDS011;29616;51.950;8.572;2023-08-12T00:39:44;4.93;;;3.42;;
7440;SDS011;29616;51.950;8.572;2023-08-12T00:42:14;6.10;;;3.38;;
7440;SDS011;29616;51.950;8.572;2023-08-12T00:44:45;6.10;;;3.47;;
7440;SDS011;29616;51.950;8.572;2023-08-12T00:47:19;6.57;;;3.58;;
7440;SDS011;29616;51.950;8.572;2023-08-12T00:49:50;9.80;;;4.97;;
7440;SDS011;29616;51.950;8.572;2023-08-12T00:52:20;6.72;;;4.00;;
7440;SDS011;29616;51.950;8.572;2023-08-12T00:54:52;6.90;;;3.75;;
7440;SDS011;29616;51.950;8.572;2023-08-12T00:57:21;6.68;;;3.65;;
7440;SDS011;29616;51.950;8.572;2023-08-12T00:59:53;7.93;;;3.75;;
7440;SDS011;29616;51.950;8.572;2023-08-12T01:02:29;7.38;;;4.40;;
7440;SDS011;29616;51.950;8.572;2023-08-12T01:05:00;7.35;;;4.53;;
7440;SDS011;29616;51.950;8.572;2023-08-12T01:07:30;6.60;;;4.90;;
7440;SDS011;29616;51.950;8.572;2023-08-12T01:10:02;7.72;;;3.83;;
7440;SDS011;29616;51.950;8.572;2023-08-12T01:12:33;13.15;;;3.90;;
7440;SDS011;29616;51.950;8.572;2023-08-12T01:15:11;10.75;;;5.28;;
7440;SDS011;29616;51.950;8.572;2023-08-12T01:17:50;6.13;;;3.95;;
7440;SDS011;29616;51.950;8.572;2023-08-12T01:20:22;6.10;;;4.10;;
7440;SDS011;29616;51.950;8.572;2023-08-12T01:22:55;6.05;;;4.40;;
7440;SDS011;29616;51.950;8.572;2023-08-12T01:25:43;8.88;;;4.13;;
7440;SDS011;29616;51.950;8.572;2023-08-12T01:28:15;7.65;;;3.42;;
7440;SDS011;29616;51.950;8.572;2023-08-12T01:30:47;10.15;;;4.47;;
7440;SDS011;29616;51.950;8.572;2023-08-12T01:33:28;10.55;;;5.00;;
7440;SDS011;29616;51.950;8.572;2023-08-12T01:36:04;14.43;;;6.30;;
7440;SDS011;29616;51.950;8.572;2023-08-12T01:38:44;9.85;;;5.57;;
7440;SDS011;29616;51.950;8.572;2023-08-12T01:41:15;12.90;;;5.78;;
7440;SDS011;29616;51.950;8.572;2023-08-12T01:43:50;12.40;;;6.22;;
7440;SDS011;29616;51.950;8.572;2023-08-12T01:46:20;10.25;;;6.10;;
7440;SDS011;29616;51.950;8.572;2023-08-12T01:48:51;10.40;;;6.18;;
7440;SDS011;29616;51.950;8.572;2023-08-12T01:51:21;16.15;;;7.45;;
7440;SDS011;29616;51.950;8.572;2023-08-12T01:53:51;16.42;;;9.20;;
7440;SDS011;29616;51.950;8.572;2023-08-12T01:56:21;15.15;;;8.25;;
7440;SDS011;29616;51.950;8.572;2023-08-12T01:58:50;17.33;;;10.57;;
7440;SDS011;29616;51.950;8.572;2023-08-12T02:01:19;20.52;;;11.40;;
7440;SDS011;29616;51.950;8.572;2023-08-12T02:03:52;21.02;;;11.65;;
7440;SDS011;29616;51.950;8.572;2023-08-12T02:06:21;22.55;;;12.70;;
7440;SDS011;29616;51.950;8.572;2023-08-12T02:08:52;25.15;;;13.20;;
7440;SDS011;29616;51.950;8.572;2023-08-12T02:11:21;25.05;;;14.73;;
7440;SDS011;29616;51.950;8.572;2023-08-12T02:13:52;29.05;;;13.55;;
7440;SDS011;29616;51.950;8.572;2023-08-12T02:16:20;26.13;;;14.43;;
7440;SDS011;29616;51.950;8.572;2023-08-12T02:18:50;29.92;;;16.50;;
7440;SDS011;29616;51.950;8.572;2023-08-12T02:21:20;34.60;;;15.65;;
7440;SDS011;29616;51.950;8.572;2023-08-12T02:23:49;29.95;;;15.15;;
7440;SDS011;29616;51.950;8.572;2023-08-12T02:26:19;34.50;;;14.02;;
7440;SDS011;29616;51.950;8.572;2023-08-12T02:28:49;29.65;;;14.68;;
7440;SDS011;29616;51.950;8.572;2023-08-12T02:31:19;28.58;;;15.93;;
7440;SDS011;29616;51.950;8.572;2023-08-12T02:33:53;26.27;;;13.70;;
7440;SDS011;29616;51.950;8.572;2023-08-12T02:36:23;25.52;;;14.65;;
7440;SDS011;29616;51.950;8.572;2023-08-12T02:38:54;24.45;;;14.98;;
7440;SDS011;29616;51.950;8.572;2023-08-12T02:41:26;28.35;;;16.17;;
7440;SDS011;29616;51.950;8.572;2023-08-12T02:43:55;31.58;;;16.00;;
7440;SDS011;29616;51.950;8.572;2023-08-12T02:46:25;29.92;;;15.65;;
7440;SDS011;29616;51.950;8.572;2023-08-12T02:48:53;27.90;;;15.48;;
7440;SDS011;29616;51.950;8.572;2023-08-12T02:51:22;32.80;;;18.10;;
7440;SDS011;29616;51.950;8.572;2023-08-12T02:53:51;41.40;;;18.83;;
7440;SDS011;29616;51.950;8.572;2023-08-12T02:56:22;27.92;;;16.90;;
7440;SDS011;29616;51.950;8.572;2023-08-12T02:58:53;32.92;;;16.15;;
7440;SDS011;29616;51.950;8.572;2023-08-12T03:01:23;43.63;;;18.70;;
7440;SDS011;29616;51.950;8.572;2023-08-12T03:03:54;44.20;;;18.40;;
7440;SDS011;29616;51.950;8.572;2023-08-12T03:06:23;36.45;;;18.15;;
7440;SDS011;29616;51.950;8.572;2023-08-12T03:08:54;36.78;;;18.13;;
7440;SDS011;29616;51.950;8.572;2023-08-12T03:11:24;30.42;;;16.25;;
7440;SDS011;29616;51.950;8.572;2023-08-12T03:13:57;34.50;;;18.58;;
7440;SDS011;29616;51.950;8.572;2023-08-12T03:16:26;37.10;;;18.80;;
7440;SDS011;29616;51.950;8.572;2023-08-12T03:18:59;39.55;;;19.90;;
7440;SDS011;29616;51.950;8.572;2023-08-12T03:21:28;52.42;;;22.23;;
7440;SDS011;29616;51.950;8.572;2023-08-12T03:23:58;42.30;;;21.40;;
7440;SDS011;29616;51.950;8.572;2023-08-12T03:26:28;43.63;;;21.70;;
7440;SDS011;29616;51.950;8.572;2023-08-12T03:29:02;49.33;;;23.58;;
7440;SDS011;29616;51.950;8.572;2023-08-12T03:31:32;51.25;;;24.30;;
7440;SDS011;29616;51.950;8.572;2023-08-12T03:34:00;62.50;;;26.33;;
7440;SDS011;29616;51.950;8.572;2023-08-12T03:36:31;59.20;;;25.58;;
7440;SDS011;29616;51.950;8.572;2023-08-12T03:39:03;66.82;;;26.05;;
7440;SDS011;29616;51.950;8.572;2023-08-12T03:41:33;66.60;;;28.00;;
7440;SDS011;29616;51.950;8.572;2023-08-12T03:44:06;73.88;;;27.08;;
7440;SDS011;29616;51.950;8.572;2023-08-12T03:46:37;77.80;;;28.17;;
7440;SDS011;29616;51.950;8.572;2023-08-12T03:49:06;73.93;;;29.17;;
7440;SDS011;29616;51.950;8.572;2023-08-12T03:51:35;94.68;;;32.60;;
7440;SDS011;29616;51.950;8.572;2023-08-12T03:54:07;76.97;;;31.13;;
7440;SDS011;29616;51.950;8.572;2023-08-12T03:56:36;82.30;;;32.58;;
7440;SDS011;29616;51.950;8.572;2023-08-12T03:59:12;126.93;;;35.15;;
7440;SDS011;29616;51.950;8.572;2023-08-12T04:01:42;86.63;;;32.00;;
7440;SDS011;29616;51.950;8.572;2023-08-12T04:04:12;98.10;;;33.10;;
7440;SDS011;29616;51.950;8.572;2023-08-12T04:06:42;83.68;;;29.83;;
7440;SDS011;29616;51.950;8.572;2023-08-12T04:09:10;95.63;;;33.70;;
7440;SDS011;29616;51.950;8.572;2023-08-12T04:11:38;98.18;;;34.33;;
7440;SDS011;29616;51.950;8.572;2023-08-12T04:14:08;110.18;;;35.13;;
7440;SDS011;29616;51.950;8.572;2023-08-12T04:16:39;113.35;;;37.10;;
7440;SDS011;29616;51.950;8.572;2023-08-12T04:19:08;129.27;;;36.85;;
7440;SDS011;29616;51.950;8.572;2023-08-12T04:21:37;114.18;;;34.63;;
7440;SDS011;29616;51.950;8.572;2023-08-12T04:24:06;117.43;;;35.88;;
7440;SDS011;29616;51.950;8.572;2023-08-12T04:26:36;120.47;;;37.58;;
7440;SDS011;29616;51.950;8.572;2023-08-12T04:29:07;132.90;;;37.90;;
7440;SDS011;29616;51.950;8.572;2023-08-12T04:31:42;188.18;;;41.42;;
7440;SDS011;29616;51.950;8.572;2023-08-12T04:34:16;133.55;;;37.40;;
7440;SDS011;29616;51.950;8.572;2023-08-12T04:36:46;205.07;;;41.33;;
7440;SDS011;29616;51.950;8.572;2023-08-12T04:39:15;150.05;;;40.88;;
7440;SDS011;29616;51.950;8.572;2023-08-12T04:41:44;141.98;;;38.78;;
7440;SDS011;29616;51.950;8.572;2023-08-12T04:44:14;228.93;;;45.40;;
7440;SDS011;29616;51.950;8.572;2023-08-12T04:46:44;213.48;;;43.42;;
7440;SDS011;29616;51.950;8.572;2023-08-12T04:49:16;175.93;;;43.13;;
7440;SDS011;29616;51.950;8.572;2023-08-12T04:51:46;158.07;;;41.20;;
7440;SDS011;29616;51.950;8.572;2023-08-12T04:54:19;182.82;;;42.47;;
7440;SDS011;29616;51.950;8.572;2023-08-12T04:56:48;174.18;;;43.45;;
7440;SDS011;29616;51.950;8.572;2023-08-12T04:59:20;167.18;;;40.60;;
7440;SDS011;29616;51.950;8.572;2023-08-12T05:01:50;153.20;;;38.67;;
7440;SDS011;29616;51.950;8.572;2023-08-12T05:04:31;160.10;;;39.72;;
7440;SDS011;29616;51.950;8.572;2023-08-12T05:07:00;143.60;;;37.88;;
7440;SDS011;29616;51.950;8.572;2023-08-12T05:09:29;156.15;;;40.47;;
7440;SDS011;29616;51.950;8.572;2023-08-12T05:11:59;214.93;;;41.95;;
7440;SDS011;29616;51.950;8.572;2023-08-12T05:14:31;149.70;;;38.70;;
7440;SDS011;29616;51.950;8.572;2023-08-12T05:17:03;154.32;;;38.60;;
7440;SDS011;29616;51.950;8.572;2023-08-12T05:19:33;161.13;;;39.03;;
7440;SDS011;29616;51.950;8.572;2023-08-12T05:22:06;211.68;;;41.40;;
7440;SDS011;29616;51.950;8.572;2023-08-12T05:24:36;212.95;;;41.28;;
7440;SDS011;29616;51.950;8.572;2023-08-12T05:27:06;127.45;;;38.50;;
7440;SDS011;29616;51.950;8.572;2023-08-12T05:29:36;162.60;;;37.35;;
7440;SDS011;29616;51.950;8.572;2023-08-12T05:32:08;140.32;;;36.88;;
7440;SDS011;29616;51.950;8.572;2023-08-12T05:34:38;149.90;;;37.40;;
7440;SDS011;29616;51.950;8.572;2023-08-12T05:37:07;158.52;;;39.05;;
7440;SDS011;29616;51.950;8.572;2023-08-12T05:39:36;175.32;;;37.70;;
7440;SDS011;29616;51.950;8.572;2023-08-12T05:42:06;140.13;;;38.50;;
7440;SDS011;29616;51.950;8.572;2023-08-12T05:44:40;135.35;;;34.15;;
7440;SDS011;29616;51.950;8.572;2023-08-12T05:47:14;116.03;;;34.08;;
7440;SDS011;29616;51.950;8.572;2023-08-12T05:49:43;153.13;;;36.85;;
7440;SDS011;29616;51.950;8.572;2023-08-12T05:52:15;123.80;;;34.63;;
7440;SDS011;29616;51.950;8.572;2023-08-12T05:54:44;134.50;;;34.88;;
7440;SDS011;29616;51.950;8.572;2023-08-12T05:57:14;121.00;;;34.50;;
7440;SDS011;29616;51.950;8.572;2023-08-12T05:59:44;92.15;;;30.20;;
7440;SDS011;29616;51.950;8.572;2023-08-12T06:02:14;129.45;;;33.28;;
7440;SDS011;29616;51.950;8.572;2023-08-12T06:04:45;138.40;;;35.58;;
7440;SDS011;29616;51.950;8.572;2023-08-12T06:07:14;90.53;;;29.35;;
7440;SDS011;29616;51.950;8.572;2023-08-12T06:09:46;127.57;;;33.20;;
7440;SDS011;29616;51.950;8.572;2023-08-12T06:12:15;82.05;;;29.58;;
7440;SDS011;29616;51.950;8.572;2023-08-12T06:14:44;90.28;;;29.73;;
7440;SDS011;29616;51.950;8.572;2023-08-12T06:17:19;81.35;;;27.75;;
7440;SDS011;29616;51.950;8.572;2023-08-12T06:19:48;75.03;;;27.52;;
7440;SDS011;29616;51.950;8.572;2023-08-12T06:22:17;86.50;;;28.70;;
7440;SDS011;29616;51.950;8.572;2023-08-12T06:24:47;73.28;;;25.90;;
7440;SDS011;29616;51.950;8.572;2023-08-12T06:27:17;59.13;;;24.50;;
7440;SDS011;29616;51.950;8.572;2023-08-12T06:29:47;50.42;;;24.17;;
7440;SDS011;29616;51.950;8.572;2023-08-12T06:32:16;45.58;;;23.42;;
7440;SDS011;29616;51.950;8.572;2023-08-12T06:34:47;52.83;;;24.15;;
7440;SDS011;29616;51.950;8.572;2023-08-12T06:37:17;36.10;;;20.55;;
7440;SDS011;29616;51.950;8.572;2023-08-12T06:39:45;32.55;;;18.83;;
7440;SDS011;29616;51.950;8.572;2023-08-12T06:42:14;33.67;;;19.20;;
7440;SDS011;29616;51.950;8.572;2023-08-12T06:44:58;28.05;;;18.17;;
7440;SDS011;29616;51.950;8.572;2023-08-12T06:47:32;25.63;;;18.05;;
7440;SDS011;29616;51.950;8.572;2023-08-12T06:50:01;23.48;;;14.77;;
7440;SDS011;29616;51.950;8.572;2023-08-12T06:52:31;23.35;;;16.17;;
7440;SDS011;29616;51.950;8.572;2023-08-12T06:55:00;22.80;;;14.82;;
7440;SDS011;29616;51.950;8.572;2023-08-12T06:57:30;22.05;;;14.93;;
7440;SDS011;29616;51.950;8.572;2023-08-12T06:59:59;21.02;;;13.57;;
7440;SDS011;29616;51.950;8.572;2023-08-12T07:02:29;20.05;;;13.77;;
7440;SDS011;29616;51.950;8.572;2023-08-12T07:05:02;22.95;;;14.68;;
7440;SDS011;29616;51.950;8.572;2023-08-12T07:07:33;19.52;;;13.02;;
7440;SDS011;29616;51.950;8.572;2023-08-12T07:10:05;18.20;;;12.63;;
7440;SDS011;29616;51.950;8.572;2023-08-12T07:12:38;19.98;;;14.48;;
7440;SDS011;29616;51.950;8.572;2023-08-12T07:15:07;20.17;;;13.40;;
7440;SDS011;29616;51.950;8.572;2023-08-12T07:17:38;17.05;;;12.57;;
7440;SDS011;29616;51.950;8.572;2023-08-12T07:20:10;20.67;;;13.15;;
7440;SDS011;29616;51.950;8.572;2023-08-12T07:22:42;18.08;;;13.02;;
7440;SDS011;29616;51.950;8.572;2023-08-12T07:25:13;21.83;;;14.52;;
7440;SDS011;29616;51.950;8.572;2023-08-12T07:27:43;20.30;;;14.15;;
7440;SDS011;29616;51.950;8.572;2023-08-12T07:30:15;19.55;;;14.32;;
7440;SDS011;29616;51.950;8.572;2023-08-12T07:32:46;17.85;;;12.15;;
7440;SDS011;29616;51.950;8.572;2023-08-12T07:35:20;18.33;;;13.55;;
7440;SDS011;29616;51.950;8.572;2023-08-12T07:37:50;21.35;;;15.18;;
7440;SDS011;29616;51.950;8.572;2023-08-12T07:40:18;19.08;;;13.27;;
7440;SDS011;29616;51.950;8.572;2023-08-12T07:42:50;18.10;;;13.52;;
7440;SDS011;29616;51.950;8.572;2023-08-12T07:45:19;17.83;;;12.80;;
7440;SDS011;29616;51.950;8.572;2023-08-12T07:47:50;21.67;;;15.18;;
7440;SDS011;29616;51.950;8.572;2023-08-12T07:50:23;19.67;;;14.60;;
7440;SDS011;29616;51.950;8.572;2023-08-12T07:52:53;17.85;;;12.98;;
7440;SDS011;29616;51.950;8.572;2023-08-12T07:55:31;18.67;;;12.57;;
7440;SDS011;29616;51.950;8.572;2023-08-12T07:58:05;17.33;;;13.25;;
7440;SDS011;29616;51.950;8.572;2023-08-12T08:00:36;20.55;;;13.95;;
7440;SDS011;29616;51.950;8.572;2023-08-12T08:03:05;19.48;;;13.88;;
7440;SDS011;29616;51.950;8.572;2023-08-12T08:05:35;20.35;;;13.80;;
7440;SDS011;29616;51.950;8.572;2023-08-12T08:08:07;18.45;;;12.45;;
7440;SDS011;29616;51.950;8.572;2023-08-12T08:10:37;19.73;;;13.70;;
7440;SDS011;29616;51.950;8.572;2023-08-12T08:13:06;21.63;;;15.85;;
7440;SDS011;29616;51.950;8.572;2023-08-12T08:15:34;19.58;;;13.93;;
7440;SDS011;29616;51.950;8.572;2023-08-12T08:18:06;19.42;;;14.20;;
7440;SDS011;29616;51.950;8.572;2023-08-12T08:20:36;20.10;;;13.98;;
7440;SDS011;29616;51.950;8.572;2023-08-12T08:23:06;20.35;;;14.43;;
7440;SDS011;29616;51.950;8.572;2023-08-12T08:25:35;19.08;;;12.88;;
7440;SDS011;29616;51.950;8.572;2023-08-12T08:28:03;20.55;;;14.50;;
7440;SDS011;29616;51.950;8.572;2023-08-12T08:30:33;20.35;;;14.65;;
7440;SDS011;29616;51.950;8.572;2023-08-12T08:33:03;21.80;;;15.43;;
7440;SDS011;29616;51.950;8.572;2023-08-12T08:35:34;22.23;;;14.75;;
7440;SDS011;29616;51.950;8.572;2023-08-12T08:38:09;20.90;;;15.40;;
7440;SDS011;29616;51.950;8.572;2023-08-12T08:40:43;22.98;;;15.85;;
7440;SDS011;29616;51.950;8.572;2023-08-12T08:43:16;24.13;;;14.93;;
7440;SDS011;29616;51.950;8.572;2023-08-12T08:45:50;22.15;;;16.27;;
7440;SDS011;29616;51.950;8.572;2023-08-12T08:48:21;24.42;;;16.50;;
7440;SDS011;29616;51.950;8.572;2023-08-12T08:50:53;22.00;;;15.00;;
7440;SDS011;29616;51.950;8.572;2023-08-12T08:53:24;23.77;;;15.57;;
7440;SDS011;29616;51.950;8.572;2023-08-12T08:55:56;22.77;;;15.63;;
7440;SDS011;29616;51.950;8.572;2023-08-12T09:00:58;22.73;;;14.73;;
7440;SDS011;29616;51.950;8.572;2023-08-12T09:03:30;25.98;;;16.50;;
7440;SDS011;29616;51.950;8.572;2023-08-12T09:06:04;25.67;;;16.15;;
7440;SDS011;29616;51.950;8.572;2023-08-12T09:08:33;29.20;;;17.20;;
7440;SDS011;29616;51.950;8.572;2023-08-12T09:11:06;23.90;;;16.85;;
7440;SDS011;29616;51.950;8.572;2023-08-12T09:13:40;21.48;;;16.15;;
7440;SDS011;29616;51.950;8.572;2023-08-12T09:16:09;20.20;;;14.18;;
7440;SDS011;29616;51.950;8.572;2023-08-12T09:18:45;17.70;;;14.13;;
7440;SDS011;29616;51.950;8.572;2023-08-12T09:21:24;17.30;;;12.82;;
7440;SDS011;29616;51.950;8.572;2023-08-12T09:23:56;16.08;;;12.30;;
7440;SDS011;29616;51.950;8.572;2023-08-12T09:26:30;14.30;;;10.75;;
7440;SDS011;29616;51.950;8.572;2023-08-12T09:29:00;12.90;;;10.70;;
7440;SDS011;29616;51.950;8.572;2023-08-12T09:31:30;13.25;;;9.95;;
7440;SDS011;29616;51.950;8.572;2023-08-12T09:34:03;11.57;;;9.25;;
7440;SDS011;29616;51.950;8.572;2023-08-12T09:36:35;9.50;;;8.00;;
7440;SDS011;29616;51.950;8.572;2023-08-12T09:39:05;8.70;;;6.32;;
7440;SDS011;29616;51.950;8.572;2023-08-12T09:41:37;9.13;;;6.47;;
7440;SDS011;29616;51.950;8.572;2023-08-12T09:44:06;9.32;;;7.20;;
7440;SDS011;29616;51.950;8.572;2023-08-12T09:46:36;7.55;;;6.75;;
7440;SDS011;29616;51.950;8.572;2023-08-12T09:49:06;9.07;;;5.95;;
7440;SDS011;29616;51.950;8.572;2023-08-12T09:51:38;6.68;;;5.55;;
7440;SDS011;29616;51.950;8.572;2023-08-12T09:54:09;10.35;;;6.03;;
7440;SDS011;29616;51.950;8.572;2023-08-12T09:59:16;7.57;;;5.40;;
7440;SDS011;29616;51.950;8.572;2023-08-12T10:01:49;6.82;;;5.07;;
7440;SDS011;29616;51.950;8.572;2023-08-12T10:04:23;5.40;;;3.55;;
7440;SDS011;29616;51.950;8.572;2023-08-12T10:06:59;5.95;;;4.20;;
7440;SDS011;29616;51.950;8.572;2023-08-12T10:09:31;5.68;;;4.50;;
7440;SDS011;29616;51.950;8.572;2023-08-12T10:12:02;6.15;;;4.28;;
7440;SDS011;29616;51.950;8.572;2023-08-12T10:14:32;5.07;;;2.60;;
7440;SDS011;29616;51.950;8.572;2023-08-12T10:17:02;3.75;;;2.72;;
7440;SDS011;29616;51.950;8.572;2023-08-12T10:19:32;4.35;;;3.65;;
7440;SDS011;29616;51.950;8.572;2023-08-12T10:22:06;4.70;;;2.83;;
7440;SDS011;29616;51.950;8.572;2023-08-12T10:24:42;3.83;;;2.50;;
7440;SDS011;29616;51.950;8.572;2023-08-12T10:27:18;3.17;;;2.60;;
7440;SDS011;29616;51.950;8.572;2023-08-12T10:29:49;5.03;;;3.33;;
7440;SDS011;29616;51.950;8.572;2023-08-12T10:32:19;5.57;;;2.45;;
7440;SDS011;29616;51.950;8.572;2023-08-12T10:34:53;3.25;;;2.42;;
7440;SDS011;29616;51.950;8.572;2023-08-12T10:37:26;4.25;;;2.35;;
7440;SDS011;29616;51.950;8.572;2023-08-12T10:39:59;5.57;;;2.10;;
7440;SDS011;29616;51.950;8.572;2023-08-12T10:42:42;2.42;;;1.60;;
7440;SDS011;29616;51.950;8.572;2023-08-12T10:45:16;2.72;;;1.60;;
7440;SDS011;29616;51.950;8.572;2023-08-12T10:47:52;2.40;;;1.13;;
7440;SDS011;29616;51.950;8.572;2023-08-12T10:50:53;3.80;;;2.17;;
7440;SDS011;29616;51.950;8.572;2023-08-12T10:53:27;3.63;;;1.52;;
7440;SDS011;29616;51.950;8.572;2023-08-12T10:56:01;4.05;;;2.90;;
7440;SDS011;29616;51.950;8.572;2023-08-12T10:58:33;2.47;;;1.23;;
7440;SDS011;29616;51.950;8.572;2023-08-12T11:01:07;3.17;;;2.03;;
7440;SDS011;29616;51.950;8.572;2023-08-12T11:03:45;2.65;;;1.77;;
7440;SDS011;29616;51.950;8.572;2023-08-12T11:06:16;3.22;;;2.08;;
7440;SDS011;29616;51.950;8.572;2023-08-12T11:08:52;3.03;;;2.08;;
7440;SDS011;29616;51.950;8.572;2023-08-12T11:11:23;4.13;;;0.98;;
7440;SDS011;29616;51.950;8.572;2023-08-12T11:13:53;3.78;;;1.83;;
7440;SDS011;29616;51.950;8.572;2023-08-12T11:16:36;2.67;;;0.80;;
7440;SDS011;29616;51.950;8.572;2023-08-12T11:19:12;1.77;;;0.90;;
7440;SDS011;29616;51.950;8.572;2023-08-12T11:21:41;1.35;;;0.82;;
7440;SDS011;29616;51.950;8.572;2023-08-12T11:26:47;1.88;;;1.10;;
7440;SDS011;29616;51.950;8.572;2023-08-12T11:29:17;1.80;;;0.73;;
7440;SDS011;29616;51.950;8.572;2023-08-12T11:31:48;6.18;;;1.35;;
7440;SDS011;29616;51.950;8.572;2023-08-12T11:34:19;2.53;;;0.43;;
7440;SDS011;29616;51.950;8.572;2023-08-12T11:36:48;1.23;;;0.50;;
7440;SDS011;29616;51.950;8.572;2023-08-12T11:39:22;1.45;;;0.75;;
7440;SDS011;29616;51.950;8.572;2023-08-12T11:41:50;1.98;;;0.98;;
7440;SDS011;29616;51.950;8.572;2023-08-12T11:44:21;1.23;;;0.40;;
7440;SDS011;29616;51.950;8.572;2023-08-12T11:46:51;2.53;;;0.68;;
7440;SDS011;29616;51.950;8.572;2023-08-12T11:49:20;1.33;;;0.50;;
7440;SDS011;29616;51.950;8.572;2023-08-12T11:51:52;3.88;;;1.90;;
7440;SDS011;29616;51.950;8.572;2023-08-12T11:54:24;1.23;;;0.57;;
7440;SDS011;29616;51.950;8.572;2023-08-12T11:56:56;1.40;;;0.30;;
7440;SDS011;29616;51.950;8.572;2023-08-12T11:59:26;3.20;;;0.65;;
7440;SDS011;29616;51.950;8.572;2023-08-12T12:01:56;1.42;;;0.70;;
7440;SDS011;29616;51.950;8.572;2023-08-12T12:04:25;1.02;;;0.50;;
7440;SDS011;29616;51.950;8.572;2023-08-12T12:06:54;1.98;;;0.63;;
7440;SDS011;29616;51.950;8.572;2023-08-12T12:09:25;1.80;;;0.43;;
7440;SDS011;29616;51.950;8.572;2023-08-12T12:11:56;1.88;;;1.00;;
7440;SDS011;29616;51.950;8.572;2023-08-12T12:14:26;1.45;;;0.77;;
7440;SDS011;29616;51.950;8.572;2023-08-12T12:16:56;1.95;;;0.82;;
7440;SDS011;29616;51.950;8.572;2023-08-12T12:19:24;2.47;;;0.98;;
7440;SDS011;29616;51.950;8.572;2023-08-12T12:21:55;1.83;;;0.90;;
7440;SDS011;29616;51.950;8.572;2023-08-12T12:24:28;1.23;;;0.85;;
7440;SDS011;29616;51.950;8.572;2023-08-12T12:26:58;2.17;;;1.00;;
7440;SDS011;29616;51.950;8.572;2023-08-12T12:29:26;1.80;;;0.55;;
7440;SDS011;29616;51.950;8.572;2023-08-12T12:31:56;2.38;;;0.75;;
7440;SDS011;29616;51.950;8.572;2023-08-12T12:34:28;2.25;;;1.05;;
7440;SDS011;29616;51.950;8.572;2023-08-12T12:36:58;2.53;;;0.65;;
7440;SDS011;29616;51.950;8.572;2023-08-12T12:39:28;2.03;;;0.73;;
7440;SDS011;29616;51.950;8.572;2023-08-12T12:41:58;3.92;;;0.60;;
7440;SDS011;29616;51.950;8.572;2023-08-12T12:44:27;4.10;;;0.80;;
7440;SDS011;29616;51.950;8.572;2023-08-12T12:46:55;3.20;;;0.65;;
7440;SDS011;29616;51.950;8.572;2023-08-12T12:49:27;3.45;;;0.60;;
7440;SDS011;29616;51.950;8.572;2023-08-12T12:51:56;1.30;;;0.63;;
7440;SDS011;29616;51.950;8.572;2023-08-12T12:54:26;2.30;;;0.75;;
7440;SDS011;29616;51.950;8.572;2023-08-12T12:56:58;1.83;;;0.73;;
7440;SDS011;29616;51.950;8.572;2023-08-12T12:59:29;1.60;;;0.50;;
7440;SDS011;29616;51.950;8.572;2023-08-12T13:01:58;2.58;;;0.88;;
7440;SDS011;29616;51.950;8.572;2023-08-12T13:04:26;1.95;;;0.55;;
7440;SDS011;29616;51.950;8.572;2023-08-12T13:07:01;2.00;;;0.88;;
7440;SDS011;29616;51.950;8.572;2023-08-12T13:09:31;1.17;;;0.47;;
7440;SDS011;29616;51.950;8.572;2023-08-12T13:12:01;2.25;;;0.63;;
7440;SDS011;29616;51.950;8.572;2023-08-12T13:14:32;1.50;;;0.73;;
7440;SDS011;29616;51.950;8.572;2023-08-12T13:17:01;2.28;;;0.88;;
7440;SDS011;29616;51.950;8.572;2023-08-12T13:19:29;1.50;;;0.93;;
7440;SDS011;29616;51.950;8.572;2023-08-12T13:21:58;2.22;;;0.63;;
7440;SDS011;29616;51.950;8.572;2023-08-12T13:24:28;2.25;;;0.90;;
7440;SDS011;29616;51.950;8.572;2023-08-12T13:27:00;2.70;;;1.13;;
7440;SDS011;29616;51.950;8.572;2023-08-12T13:29:29;3.30;;;1.25;;
7440;SDS011;29616;51.950;8.572;2023-08-12T13:31:58;2.58;;;0.65;;
7440;SDS011;29616;51.950;8.572;2023-08-12T13:34:30;2.08;;;1.15;;
7440;SDS011;29616;51.950;8.572;2023-08-12T13:36:59;2.55;;;1.20;;
7440;SDS011;29616;51.950;8.572;2023-08-12T13:39:27;2.00;;;1.30;;
7440;SDS011;29616;51.950;8.572;2023-08-12T13:41:58;3.15;;;1.10;;
7440;SDS011;29616;51.950;8.572;2023-08-12T13:44:27;2.08;;;0.80;;
7440;SDS011;29616;51.950;8.572;2023-08-12T13:46:58;2.65;;;0.70;;
7440;SDS011;29616;51.950;8.572;2023-08-12T13:49:26;1.50;;;0.63;;
7440;SDS011;29616;51.950;8.572;2023-08-12T13:51:55;2.50;;;0.65;;
7440;SDS011;29616;51.950;8.572;2023-08-12T13:54:27;2.58;;;0.52;;
7440;SDS011;29616;51.950;8.572;2023-08-12T13:56:55;3.55;;;1.05;;
7440;SDS011;29616;51.950;8.572;2023-08-12T13:59:26;2.03;;;1.30;;
7440;SDS011;29616;51.950;8.572;2023-08-12T14:01:55;1.92;;;1.02;;
7440;SDS011;29616;51.950;8.572;2023-08-12T14:04:26;2.88;;;1.45;;
7440;SDS011;29616;51.950;8.572;2023-08-12T14:06:54;2.25;;;1.45;;
7440;SDS011;29616;51.950;8.572;2023-08-12T14:09:23;1.73;;;0.65;;
7440;SDS011;29616;51.950;8.572;2023-08-12T14:11:51;3.05;;;1.10;;
7440;SDS011;29616;51.950;8.572;2023-08-12T14:14:19;2.42;;;0.93;;
7440;SDS011;29616;51.950;8.572;2023-08-12T14:16:49;2.85;;;1.50;;
7440;SDS011;29616;51.950;8.572;2023-08-12T14:19:18;1.70;;;0.80;;
7440;SDS011;29616;51.950;8.572;2023-08-12T14:21:46;2.15;;;0.95;;
7440;SDS011;29616;51.950;8.572;2023-08-12T14:24:15;1.90;;;0.75;;
7440;SDS011;29616;51.950;8.572;2023-08-12T14:26:43;2.92;;;0.95;;
7440;SDS011;29616;51.950;8.572;2023-08-12T14:29:11;2.38;;;0.85;;
7440;SDS011;29616;51.950;8.572;2023-08-12T14:31:39;2.35;;;0.82;;
7440;SDS011;29616;51.950;8.572;2023-08-12T14:34:09;2.97;;;1.50;;
7440;SDS011;29616;51.950;8.572;2023-08-12T14:36:37;3.35;;;1.40;;
7440;SDS011;29616;51.950;8.572;2023-08-12T14:39:06;2.45;;;1.38;;
7440;SDS011;29616;51.950;8.572;2023-08-12T14:41:34;2.60;;;1.33;;
7440;SDS011;29616;51.950;8.572;2023-08-12T14:44:03;2.33;;;1.23;;
7440;SDS011;29616;51.950;8.572;2023-08-12T14:46:31;2.03;;;1.15;;
7440;SDS011;29616;51.950;8.572;2023-08-12T14:49:00;2.10;;;0.70;;
7440;SDS011;29616;51.950;8.572;2023-08-12T14:51:29;2.38;;;1.20;;
7440;SDS011;29616;51.950;8.572;2023-08-12T14:53:58;11.60;;;2.58;;
7440;SDS011;29616;51.950;8.572;2023-08-12T14:56:26;5.93;;;2.05;;
7440;SDS011;29616;51.950;8.572;2023-08-12T14:58:56;3.22;;;1.30;;
7440;SDS011;29616;51.950;8.572;2023-08-12T15:01:24;3.10;;;1.23;;
7440;SDS011;29616;51.950;8.572;2023-08-12T15:03:54;3.83;;;1.58;;
7440;SDS011;29616;51.950;8.572;2023-08-12T15:06:23;3.22;;;1.52;;
7440;SDS011;29616;51.950;8.572;2023-08-12T15:08:53;6.13;;;1.75;;
7440;SDS011;29616;51.950;8.572;2023-08-12T15:11:22;4.75;;;1.30;;
7440;SDS011;29616;51.950;8.572;2023-08-12T15:13:51;3.20;;;1.35;;
7440;SDS011;29616;51.950;8.572;2023-08-12T15:16:20;3.63;;;1.83;;